sensor_id;sensor_type;location;lat;lon;timestamp;pressure;altitude;pressure_sealevel;temperature;humidity
50484;BME280;36409;52.168;20.878;2023-11-19T00:00:41;101132.83;;;-0.38;81.70
50484;BME280;36409;52.168;20.878;2023-11-19T00:03:41;101131.94;;;-0.39;82.33
50484;BME280;36409;52.168;20.878;2023-11-19T00:06:11;101140.52;;;-0.38;81.59
50484;BME280;36409;52.168;20.878;2023-11-19T00:08:41;101138.83;;;-0.38;81.70
50484;BME280;36409;52.168;20.878;2023-11-19T00:11:10;101143.14;;;-0.37;81.45
50484;BME280;36409;52.168;20.878;2023-11-19T00:13:39;101150.93;;;-0.35;81.91
50484;BME280;36409;52.168;20.878;2023-11-19T00:16:09;101150.98;;;-0.34;81.42
50484;BME280;36409;52.168;20.878;2023-11-19T00:18:39;101151.03;;;-0.32;81.96
50484;BME280;36409;52.168;20.878;2023-11-19T00:21:08;101139.97;;;-0.31;82.25
50484;BME280;36409;52.168;20.878;2023-11-19T00:23:38;101131.55;;;-0.28;81.45
50484;BME280;36409;52.168;20.878;2023-11-19T00:26:11;101124.70;;;-0.28;81.60
50484;BME280;36409;52.168;20.878;2023-11-19T00:28:45;101127.27;;;-0.28;81.64
50484;BME280;36409;52.168;20.878;2023-11-19T00:31:17;101122.14;;;-0.28;81.51
50484;BME280;36409;52.168;20.878;2023-11-19T00:33:50;101125.56;;;-0.27;81.60
50484;BME280;36409;52.168;20.878;2023-11-19T00:36:19;101121.38;;;-0.25;82.26
50484;BME280;36409;52.168;20.878;2023-11-19T00:38:49;101116.34;;;-0.24;82.05
50484;BME280;36409;52.168;20.878;2023-11-19T00:41:18;101122.28;;;-0.25;81.70
50484;BME280;36409;52.168;20.878;2023-11-19T00:43:47;101112.83;;;-0.26;82.07
50484;BME280;36409;52.168;20.878;2023-11-19T00:46:20;101101.61;;;-0.28;81.82
50484;BME280;36409;52.168;20.878;2023-11-19T00:48:50;101105.13;;;-0.26;81.80
50484;BME280;36409;52.168;20.878;2023-11-19T00:51:19;101101.61;;;-0.28;82.57
50484;BME280;36409;52.168;20.878;2023-11-19T00:53:49;101092.16;;;-0.29;82.38
50484;BME280;36409;52.168;20.878;2023-11-19T00:56:18;101091.21;;;-0.31;81.72
50484;BME280;36409;52.168;20.878;2023-11-19T00:58:48;101081.76;;;-0.32;82.22
50484;BME280;36409;52.168;20.878;2023-11-19T01:01:17;101069.73;;;-0.33;81.55
50484;BME280;36409;52.168;20.878;2023-11-19T01:03:47;101062.12;;;-0.32;81.88
50484;BME280;36409;52.168;20.878;2023-11-19T01:06:31;101056.91;;;-0.33;81.79
50484;BME280;36409;52.168;20.878;2023-11-19T01:09:00;101062.89;;;-0.34;81.90
50484;BME280;36409;52.168;20.878;2023-11-19T01:11:29;101059.48;;;-0.33;82.39
50484;BME280;36409;52.168;20.878;2023-11-19T01:13:58;101050.16;;;-0.31;81.50
50484;BME280;36409;52.168;20.878;2023-11-19T01:16:29;101047.59;;;-0.31;82.42
50484;BME280;36409;52.168;20.878;2023-11-19T01:18:59;101039.08;;;-0.30;81.92
50484;BME280;36409;52.168;20.878;2023-11-19T01:21:45;101033.14;;;-0.29;81.55
50484;BME280;36409;52.168;20.878;2023-11-19T01:24:14;101026.34;;;-0.28;81.89
50484;BME280;36409;52.168;20.878;2023-11-19T01:26:46;101028.91;;;-0.28;81.88
50484;BME280;36409;52.168;20.878;2023-11-19T01:29:15;101038.27;;;-0.29;81.37
50484;BME280;36409;52.168;20.878;2023-11-19T01:31:46;101048.59;;;-0.27;81.78
50484;BME280;36409;52.168;20.878;2023-11-19T01:34:15;101040.97;;;-0.26;82.05
50484;BME280;36409;52.168;20.878;2023-11-19T01:36:46;101044.53;;;-0.22;81.82
50484;BME280;36409;52.168;20.878;2023-11-19T01:39:15;101042.83;;;-0.22;81.88
50484;BME280;36409;52.168;20.878;2023-11-19T01:41:44;101037.78;;;-0.20;81.70
50484;BME280;36409;52.168;20.878;2023-11-19T01:44:13;101031.84;;;-0.19;82.33
50484;BME280;36409;52.168;20.878;2023-11-19T01:46:44;101026.70;;;-0.19;82.39
50484;BME280;36409;52.168;20.878;2023-11-19T01:49:16;101021.57;;;-0.19;82.00
50484;BME280;36409;52.168;20.878;2023-11-19T01:51:47;101020.81;;;-0.17;82.42
50484;BME280;36409;52.168;20.878;2023-11-19T01:54:17;101015.67;;;-0.17;82.08
50484;BME280;36409;52.168;20.878;2023-11-19T01:56:46;101017.38;;;-0.17;81.95
50484;BME280;36409;52.168;20.878;2023-11-19T01:59:16;101022.56;;;-0.16;82.53
50484;BME280;36409;52.168;20.878;2023-11-19T02:01:45;101014.05;;;-0.14;82.24
50484;BME280;36409;52.168;20.878;2023-11-19T02:04:14;101005.46;;;-0.15;81.73
50484;BME280;36409;52.168;20.878;2023-11-19T02:06:45;100996.84;;;-0.17;82.60
50484;BME280;36409;52.168;20.878;2023-11-19T02:09:17;100998.57;;;-0.16;82.03
50484;BME280;36409;52.168;20.878;2023-11-19T02:11:48;101003.70;;;-0.16;82.25
50484;BME280;36409;52.168;20.878;2023-11-19T02:14:19;100996.01;;;-0.16;82.46
50484;BME280;36409;52.168;20.878;2023-11-19T02:16:56;100991.72;;;-0.17;81.91
50484;BME280;36409;52.168;20.878;2023-11-19T02:19:25;100978.88;;;-0.17;81.63
50484;BME280;36409;52.168;20.878;2023-11-19T02:21:55;100976.23;;;-0.19;81.89
50484;BME280;36409;52.168;20.878;2023-11-19T02:24:27;100976.23;;;-0.19;82.10
50484;BME280;36409;52.168;20.878;2023-11-19T02:27:04;100977.99;;;-0.18;82.18
50484;BME280;36409;52.168;20.878;2023-11-19T02:29:36;100977.05;;;-0.20;82.47
50484;BME280;36409;52.168;20.878;2023-11-19T02:32:06;100974.44;;;-0.21;82.21
50484;BME280;36409;52.168;20.878;2023-11-19T02:34:38;100968.31;;;-0.25;81.67
50484;BME280;36409;52.168;20.878;2023-11-19T02:37:07;100966.56;;;-0.26;82.59
50484;BME280;36409;52.168;20.878;2023-11-19T02:39:38;100962.28;;;-0.25;81.82
50484;BME280;36409;52.168;20.878;2023-11-19T02:42:07;100969.13;;;-0.26;81.85
50484;BME280;36409;52.168;20.878;2023-11-19T02:44:37;100962.11;;;-0.30;82.03
50484;BME280;36409;52.168;20.878;2023-11-19T02:47:07;100957.06;;;-0.28;81.96
50484;BME280;36409;52.168;20.878;2023-11-19T02:49:36;100951.92;;;-0.28;82.69
50484;BME280;36409;52.168;20.878;2023-11-19T02:52:07;100951.08;;;-0.27;82.56
50484;BME280;36409;52.168;20.878;2023-11-19T02:54:38;100931.32;;;-0.30;81.84
50484;BME280;36409;52.168;20.878;2023-11-19T02:57:08;100928.75;;;-0.30;82.54
50484;BME280;36409;52.168;20.878;2023-11-19T02:59:50;100921.05;;;-0.30;82.20
50484;BME280;36409;52.168;20.878;2023-11-19T03:02:19;100922.81;;;-0.29;81.57
50484;BME280;36409;52.168;20.878;2023-11-19T03:04:48;100921.95;;;-0.29;82.21
50484;BME280;36409;52.168;20.878;2023-11-19T03:07:17;100915.11;;;-0.29;81.92
50484;BME280;36409;52.168;20.878;2023-11-19T03:09:46;100910.88;;;-0.28;81.55
50484;BME280;36409;52.168;20.878;2023-11-19T03:12:15;100904.85;;;-0.29;81.65
50484;BME280;36409;52.168;20.878;2023-11-19T03:14:44;100898.86;;;-0.29;82.21
50484;BME280;36409;52.168;20.878;2023-11-19T03:17:16;100893.73;;;-0.29;82.80
50484;BME280;36409;52.168;20.878;2023-11-19T03:19:47;100895.48;;;-0.28;82.50
50484;BME280;36409;52.168;20.878;2023-11-19T03:22:17;100896.29;;;-0.29;82.56
50484;BME280;36409;52.168;20.878;2023-11-19T03:24:46;100890.34;;;-0.28;82.57
50484;BME280;36409;52.168;20.878;2023-11-19T03:27:15;100887.70;;;-0.30;81.84
50484;BME280;36409;52.168;20.878;2023-11-19T03:29:45;100885.14;;;-0.30;82.65
50484;BME280;36409;52.168;20.878;2023-11-19T03:32:14;100889.41;;;-0.30;82.12
50484;BME280;36409;52.168;20.878;2023-11-19T03:34:43;100885.01;;;-0.33;82.17
50484;BME280;36409;52.168;20.878;2023-11-19T03:37:13;100878.16;;;-0.34;81.84
50484;BME280;36409;52.168;20.878;2023-11-19T03:39:45;100871.27;;;-0.35;81.88
50484;BME280;36409;52.168;20.878;2023-11-19T03:42:14;100861.06;;;-0.34;82.36
50484;BME280;36409;52.168;20.878;2023-11-19T03:44:43;100867.94;;;-0.33;82.48
50484;BME280;36409;52.168;20.878;2023-11-19T03:47:12;100857.63;;;-0.34;82.09
50484;BME280;36409;52.168;20.878;2023-11-19T03:49:41;100859.30;;;-0.35;82.32
50484;BME280;36409;52.168;20.878;2023-11-19T03:52:13;100856.74;;;-0.35;82.48
50484;BME280;36409;52.168;20.878;2023-11-19T03:54:49;100850.75;;;-0.35;81.94
50484;BME280;36409;52.168;20.878;2023-11-19T03:57:18;100842.92;;;-0.38;82.04
50484;BME280;36409;52.168;20.878;2023-11-19T03:59:47;100843.79;;;-0.38;82.49
50484;BME280;36409;52.168;20.878;2023-11-19T04:02:16;100843.73;;;-0.39;81.78
50484;BME280;36409;52.168;20.878;2023-11-19T04:04:46;100836.91;;;-0.39;82.29
50484;BME280;36409;52.168;20.878;2023-11-19T04:07:17;100825.78;;;-0.39;81.64
50484;BME280;36409;52.168;20.878;2023-11-19T04:09:46;100823.22;;;-0.39;81.70
50484;BME280;36409;52.168;20.878;2023-11-19T04:12:16;100806.12;;;-0.39;81.66
50484;BME280;36409;52.168;20.878;2023-11-19T04:14:45;100812.14;;;-0.38;82.14
50484;BME280;36409;52.168;20.878;2023-11-19T04:17:17;100812.19;;;-0.37;81.78
50484;BME280;36409;52.168;20.878;2023-11-19T04:19:48;100807.06;;;-0.37;81.92
50484;BME280;36409;52.168;20.878;2023-11-19T04:22:19;100797.69;;;-0.36;82.38
50484;BME280;36409;52.168;20.878;2023-11-19T04:24:48;100794.23;;;-0.37;82.37
50484;BME280;36409;52.168;20.878;2023-11-19T04:27:18;100784.86;;;-0.36;81.93
50484;BME280;36409;52.168;20.878;2023-11-19T04:29:47;100777.98;;;-0.37;82.20
50484;BME280;36409;52.168;20.878;2023-11-19T04:32:17;100789.10;;;-0.37;81.83
50484;BME280;36409;52.168;20.878;2023-11-19T04:34:46;100781.36;;;-0.38;81.69
50484;BME280;36409;52.168;20.878;2023-11-19T04:37:16;100779.56;;;-0.41;81.76
50484;BME280;36409;52.168;20.878;2023-11-19T04:39:45;100780.38;;;-0.42;81.48
50484;BME280;36409;52.168;20.878;2023-11-19T04:42:14;100774.35;;;-0.42;82.01
50484;BME280;36409;52.168;20.878;2023-11-19T04:44:45;100776.92;;;-0.42;81.65
50484;BME280;36409;52.168;20.878;2023-11-19T04:47:14;100777.00;;;-0.41;82.61
50484;BME280;36409;52.168;20.878;2023-11-19T04:49:44;100771.79;;;-0.42;82.45
50484;BME280;36409;52.168;20.878;2023-11-19T04:52:13;100764.91;;;-0.43;82.69
50484;BME280;36409;52.168;20.878;2023-11-19T04:54:43;100760.67;;;-0.43;82.08
50484;BME280;36409;52.168;20.878;2023-11-19T04:57:13;100756.40;;;-0.42;82.57
50484;BME280;36409;52.168;20.878;2023-11-19T04:59:42;100757.21;;;-0.43;82.03
50484;BME280;36409;52.168;20.878;2023-11-19T05:02:13;100751.22;;;-0.44;81.62
50484;BME280;36409;52.168;20.878;2023-11-19T05:04:44;100756.40;;;-0.42;81.72
50484;BME280;36409;52.168;20.878;2023-11-19T05:07:15;100749.59;;;-0.42;82.53
50484;BME280;36409;52.168;20.878;2023-11-19T05:09:45;100742.84;;;-0.40;81.98
50484;BME280;36409;52.168;20.878;2023-11-19T05:12:16;100743.70;;;-0.39;81.98
50484;BME280;36409;52.168;20.878;2023-11-19T05:14:45;100737.63;;;-0.41;81.94
50484;BME280;36409;52.168;20.878;2023-11-19T05:17:18;100733.39;;;-0.41;82.74
50484;BME280;36409;52.168;20.878;2023-11-19T05:19:50;100724.87;;;-0.40;82.01
50484;BME280;36409;52.168;20.878;2023-11-19T05:22:20;100721.42;;;-0.40;82.15
50484;BME280;36409;52.168;20.878;2023-11-19T05:24:50;100716.25;;;-0.42;82.52
50484;BME280;36409;52.168;20.878;2023-11-19T05:27:19;100717.11;;;-0.41;82.86
50484;BME280;36409;52.168;20.878;2023-11-19T05:29:48;100711.11;;;-0.42;82.65
50484;BME280;36409;52.168;20.878;2023-11-19T05:32:17;100709.41;;;-0.41;81.69
50484;BME280;36409;52.168;20.878;2023-11-19T05:34:46;100716.17;;;-0.43;81.99
50484;BME280;36409;52.168;20.878;2023-11-19T05:37:19;100712.70;;;-0.45;81.71
50484;BME280;36409;52.168;20.878;2023-11-19T05:39:48;100711.00;;;-0.45;82.27
50484;BME280;36409;52.168;20.878;2023-11-19T05:42:20;100711.00;;;-0.45;82.51
50484;BME280;36409;52.168;20.878;2023-11-19T05:44:49;100710.06;;;-0.47;81.81
50484;BME280;36409;52.168;20.878;2023-11-19T05:47:18;100698.05;;;-0.48;82.79
50484;BME280;36409;52.168;20.878;2023-11-19T05:49:48;100695.56;;;-0.47;81.92
50484;BME280;36409;52.168;20.878;2023-11-19T05:52:17;100699.76;;;-0.49;81.90
50484;BME280;36409;52.168;20.878;2023-11-19T05:54:47;100700.62;;;-0.48;82.60
50484;BME280;36409;52.168;20.878;2023-11-19T05:57:20;100699.88;;;-0.45;82.42
50484;BME280;36409;52.168;20.878;2023-11-19T05:59:52;100708.39;;;-0.47;82.30
50484;BME280;36409;52.168;20.878;2023-11-19T06:02:24;100704.12;;;-0.46;82.15
50484;BME280;36409;52.168;20.878;2023-11-19T06:04:53;100699.80;;;-0.47;82.42
50484;BME280;36409;52.168;20.878;2023-11-19T06:07:23;100704.93;;;-0.47;82.20
50484;BME280;36409;52.168;20.878;2023-11-19T06:09:53;100698.83;;;-0.51;82.11
50484;BME280;36409;52.168;20.878;2023-11-19T06:12:23;100707.33;;;-0.52;82.27
50484;BME280;36409;52.168;20.878;2023-11-19T06:14:52;100703.91;;;-0.52;82.04
50484;BME280;36409;52.168;20.878;2023-11-19T06:17:21;100699.59;;;-0.53;81.94
50484;BME280;36409;52.168;20.878;2023-11-19T06:19:50;100697.77;;;-0.56;81.66
50484;BME280;36409;52.168;20.878;2023-11-19T06:22:20;100684.09;;;-0.56;81.70
50484;BME280;36409;52.168;20.878;2023-11-19T06:24:50;100681.56;;;-0.55;81.83
50484;BME280;36409;52.168;20.878;2023-11-19T06:27:19;100682.45;;;-0.54;81.60
50484;BME280;36409;52.168;20.878;2023-11-19T06:29:50;100679.89;;;-0.54;82.20
50484;BME280;36409;52.168;20.878;2023-11-19T06:32:27;100665.32;;;-0.55;81.93
50484;BME280;36409;52.168;20.878;2023-11-19T06:34:57;100665.32;;;-0.55;82.36
50484;BME280;36409;52.168;20.878;2023-11-19T06:37:27;100659.38;;;-0.54;82.00
50484;BME280;36409;52.168;20.878;2023-11-19T06:39:57;100656.81;;;-0.54;82.39
50484;BME280;36409;52.168;20.878;2023-11-19T06:42:26;100662.80;;;-0.54;82.80
50484;BME280;36409;52.168;20.878;2023-11-19T06:44:56;100657.67;;;-0.54;81.98
50484;BME280;36409;52.168;20.878;2023-11-19T06:47:27;100652.45;;;-0.57;81.63
50484;BME280;36409;52.168;20.878;2023-11-19T06:49:57;100650.75;;;-0.56;82.49
50484;BME280;36409;52.168;20.878;2023-11-19T06:52:27;100642.00;;;-0.62;82.02
50484;BME280;36409;52.168;20.878;2023-11-19T06:54:59;100641.14;;;-0.62;81.56
50484;BME280;36409;52.168;20.878;2023-11-19T06:57:32;100633.45;;;-0.62;82.37
50484;BME280;36409;52.168;20.878;2023-11-19T07:00:02;100636.83;;;-0.63;81.45
50484;BME280;36409;52.168;20.878;2023-11-19T07:02:33;100635.08;;;-0.64;81.84
50484;BME280;36409;52.168;20.878;2023-11-19T07:05:04;100630.77;;;-0.65;81.80
50484;BME280;36409;52.168;20.878;2023-11-19T07:07:34;100629.02;;;-0.66;81.94
50484;BME280;36409;52.168;20.878;2023-11-19T07:10:09;100626.45;;;-0.66;82.54
50484;BME280;36409;52.168;20.878;2023-11-19T07:12:39;100620.47;;;-0.67;82.44
50484;BME280;36409;52.168;20.878;2023-11-19T07:15:10;100618.84;;;-0.65;82.11
50484;BME280;36409;52.168;20.878;2023-11-19T07:17:41;100605.24;;;-0.62;82.42
50484;BME280;36409;52.168;20.878;2023-11-19T07:20:12;100620.75;;;-0.59;81.93
50484;BME280;36409;52.168;20.878;2023-11-19T07:22:44;100613.98;;;-0.57;82.04
50484;BME280;36409;52.168;20.878;2023-11-19T07:25:14;100608.01;;;-0.56;82.08
50484;BME280;36409;52.168;20.878;2023-11-19T07:27:44;100606.34;;;-0.55;81.84
50484;BME280;36409;52.168;20.878;2023-11-19T07:30:13;100609.91;;;-0.50;82.06
50484;BME280;36409;52.168;20.878;2023-11-19T07:32:43;100598.84;;;-0.49;81.61
50484;BME280;36409;52.168;20.878;2023-11-19T07:35:12;100601.48;;;-0.48;81.56
50484;BME280;36409;52.168;20.878;2023-11-19T07:37:41;100601.56;;;-0.44;81.52
50484;BME280;36409;52.168;20.878;2023-11-19T07:40:15;100591.38;;;-0.43;82.57
50484;BME280;36409;52.168;20.878;2023-11-19T07:42:45;100582.13;;;-0.38;81.98
50484;BME280;36409;52.168;20.878;2023-11-19T07:45:14;100583.13;;;-0.34;81.95
50484;BME280;36409;52.168;20.878;2023-11-19T07:47:44;100578.07;;;-0.31;81.77
50484;BME280;36409;52.168;20.878;2023-11-19T07:50:14;100583.31;;;-0.28;81.72
50484;BME280;36409;52.168;20.878;2023-11-19T07:52:45;100573.20;;;-0.23;81.78
50484;BME280;36409;52.168;20.878;2023-11-19T07:55:15;100568.22;;;-0.19;81.74
50484;BME280;36409;52.168;20.878;2023-11-19T07:57:44;100566.58;;;-0.17;82.15
50484;BME280;36409;52.168;20.878;2023-11-19T08:00:15;100566.62;;;-0.15;81.94
50484;BME280;36409;52.168;20.878;2023-11-19T08:02:45;100555.53;;;-0.14;81.46
50484;BME280;36409;52.168;20.878;2023-11-19T08:05:15;100554.83;;;-0.10;82.36
50484;BME280;36409;52.168;20.878;2023-11-19T08:07:44;100554.97;;;-0.05;81.73
50484;BME280;36409;52.168;20.878;2023-11-19T08:10:14;100555.79;;;-0.06;82.34
50484;BME280;36409;52.168;20.878;2023-11-19T08:12:45;100556.68;;;-0.06;81.67
50484;BME280;36409;52.168;20.878;2023-11-19T08:15:15;100551.63;;;-0.03;82.11
50484;BME280;36409;52.168;20.878;2023-11-19T08:18:00;100552.51;;;-0.02;82.44
50484;BME280;36409;52.168;20.878;2023-11-19T08:20:29;100544.06;;;0.02;81.38
50484;BME280;36409;52.168;20.878;2023-11-19T08:22:58;100539.07;;;0.07;81.71
50484;BME280;36409;52.168;20.878;2023-11-19T08:25:31;100527.23;;;0.10;82.53
50484;BME280;36409;52.168;20.878;2023-11-19T08:28:03;100522.23;;;0.15;81.90
50484;BME280;36409;52.168;20.878;2023-11-19T08:30:35;100521.55;;;0.21;81.48
50484;BME280;36409;52.168;20.878;2023-11-19T08:33:06;100519.02;;;0.22;82.42
50484;BME280;36409;52.168;20.878;2023-11-19T08:35:35;100518.36;;;0.29;81.73
50484;BME280;36409;52.168;20.878;2023-11-19T08:38:04;100519.36;;;0.33;81.90
50484;BME280;36409;52.168;20.878;2023-11-19T08:40:34;100509.91;;;0.32;82.08
50484;BME280;36409;52.168;20.878;2023-11-19T08:43:03;100511.69;;;0.35;82.09
50484;BME280;36409;52.168;20.878;2023-11-19T08:45:32;100512.47;;;0.32;81.20
50484;BME280;36409;52.168;20.878;2023-11-19T08:48:01;100505.59;;;0.31;81.58
50484;BME280;36409;52.168;20.878;2023-11-19T08:50:30;100505.49;;;0.28;81.43
50484;BME280;36409;52.168;20.878;2023-11-19T08:53:00;100506.34;;;0.28;81.32
50484;BME280;36409;52.168;20.878;2023-11-19T08:55:29;100496.93;;;0.27;81.47
50484;BME280;36409;52.168;20.878;2023-11-19T08:58:01;100500.39;;;0.29;81.89
50484;BME280;36409;52.168;20.878;2023-11-19T09:00:31;100499.70;;;0.35;82.30
50484;BME280;36409;52.168;20.878;2023-11-19T09:03:01;100487.09;;;0.43;81.88
50484;BME280;36409;52.168;20.878;2023-11-19T09:05:30;100478.78;;;0.52;81.42
50484;BME280;36409;52.168;20.878;2023-11-19T09:08:00;100477.27;;;0.58;81.44
50484;BME280;36409;52.168;20.878;2023-11-19T09:10:29;100477.27;;;0.58;81.96
50484;BME280;36409;52.168;20.878;2023-11-19T09:12:58;100461.75;;;0.55;82.07
50484;BME280;36409;52.168;20.878;2023-11-19T09:15:28;100454.08;;;0.57;81.56
50484;BME280;36409;52.168;20.878;2023-11-19T09:17:58;100446.24;;;0.52;81.94
50484;BME280;36409;52.168;20.878;2023-11-19T09:20:27;100445.20;;;0.45;81.89
50484;BME280;36409;52.168;20.878;2023-11-19T09:23:01;100438.19;;;0.40;81.39
50484;BME280;36409;52.168;20.878;2023-11-19T09:25:30;100442.47;;;0.39;81.17
50484;BME280;36409;52.168;20.878;2023-11-19T09:28:13;100437.30;;;0.38;81.90
50484;BME280;36409;52.168;20.878;2023-11-19T09:30:43;100438.89;;;0.34;81.83
50484;BME280;36409;52.168;20.878;2023-11-19T09:33:15;100430.30;;;0.32;82.14
50484;BME280;36409;52.168;20.878;2023-11-19T09:35:45;100425.09;;;0.30;81.16
50484;BME280;36409;52.168;20.878;2023-11-19T09:38:14;100418.21;;;0.29;82.07
50484;BME280;36409;52.168;20.878;2023-11-19T09:40:43;100426.74;;;0.28;81.17
50484;BME280;36409;52.168;20.878;2023-11-19T09:43:12;100423.41;;;0.31;81.91
50484;BME280;36409;52.168;20.878;2023-11-19T09:45:49;100418.21;;;0.29;81.47
50484;BME280;36409;52.168;20.878;2023-11-19T09:48:21;100420.75;;;0.28;81.89
50484;BME280;36409;52.168;20.878;2023-11-19T09:50:54;100415.61;;;0.28;81.88
50484;BME280;36409;52.168;20.878;2023-11-19T09:53:25;100410.45;;;0.26;81.45
50484;BME280;36409;52.168;20.878;2023-11-19T09:55:58;100412.19;;;0.27;81.33
50484;BME280;36409;52.168;20.878;2023-11-19T09:58:29;100406.99;;;0.26;82.06
50484;BME280;36409;52.168;20.878;2023-11-19T10:00:59;100398.56;;;0.30;82.20
50484;BME280;36409;52.168;20.878;2023-11-19T10:03:51;100398.72;;;0.36;82.25
50484;BME280;36409;52.168;20.878;2023-11-19T10:06:28;100397.95;;;0.39;81.92
50484;BME280;36409;52.168;20.878;2023-11-19T10:08:59;100386.80;;;0.38;81.50
50484;BME280;36409;52.168;20.878;2023-11-19T10:11:29;100379.98;;;0.39;82.00
50484;BME280;36409;52.168;20.878;2023-11-19T10:14:00;100379.12;;;0.40;81.18
50484;BME280;36409;52.168;20.878;2023-11-19T10:16:30;100367.07;;;0.37;82.04
50484;BME280;36409;52.168;20.878;2023-11-19T10:19:02;100359.34;;;0.36;82.11
50484;BME280;36409;52.168;20.878;2023-11-19T10:21:34;100361.84;;;0.34;82.09
50484;BME280;36409;52.168;20.878;2023-11-19T10:24:05;100360.98;;;0.34;81.98
50484;BME280;36409;52.168;20.878;2023-11-19T10:26:37;100359.22;;;0.31;81.39
50484;BME280;36409;52.168;20.878;2023-11-19T10:29:06;100362.61;;;0.30;81.72
50484;BME280;36409;52.168;20.878;2023-11-19T10:31:37;100353.98;;;0.28;81.57
50484;BME280;36409;52.168;20.878;2023-11-19T10:34:25;100351.45;;;0.29;81.21
50484;BME280;36409;52.168;20.878;2023-11-19T10:36:54;100344.63;;;0.30;81.78
50484;BME280;36409;52.168;20.878;2023-11-19T10:39:32;100330.88;;;0.28;81.69
50484;BME280;36409;52.168;20.878;2023-11-19T10:42:20;100331.80;;;0.30;81.21
50484;BME280;36409;52.168;20.878;2023-11-19T10:44:50;100330.91;;;0.29;81.73
50484;BME280;36409;52.168;20.878;2023-11-19T10:47:23;100318.13;;;0.31;81.69
50484;BME280;36409;52.168;20.878;2023-11-19T10:49:59;100312.94;;;0.29;81.99
50484;BME280;36409;52.168;20.878;2023-11-19T10:52:29;100306.14;;;0.32;81.43
50484;BME280;36409;52.168;20.878;2023-11-19T10:55:01;100302.72;;;0.31;82.03
50484;BME280;36409;52.168;20.878;2023-11-19T10:57:37;100296.70;;;0.30;82.20
50484;BME280;36409;52.168;20.878;2023-11-19T11:00:13;100288.97;;;0.29;81.94
50484;BME280;36409;52.168;20.878;2023-11-19T11:02:52;100281.23;;;0.27;81.99
50484;BME280;36409;52.168;20.878;2023-11-19T11:05:26;100269.22;;;0.26;81.20
50484;BME280;36409;52.168;20.878;2023-11-19T11:07:58;100262.34;;;0.25;81.95
50484;BME280;36409;52.168;20.878;2023-11-19T11:10:34;100261.43;;;0.23;81.94
50484;BME280;36409;52.168;20.878;2023-11-19T11:13:26;100255.38;;;0.21;81.25
50484;BME280;36409;52.168;20.878;2023-11-19T11:16:02;100239.95;;;0.20;81.20
50484;BME280;36409;52.168;20.878;2023-11-19T11:18:35;100240.77;;;0.19;82.17
50484;BME280;36409;52.168;20.878;2023-11-19T11:21:12;100234.75;;;0.18;81.52
50484;BME280;36409;52.168;20.878;2023-11-19T11:24:13;100226.28;;;0.21;81.97
50484;BME280;36409;52.168;20.878;2023-11-19T11:27:02;100225.58;;;0.26;81.18
50484;BME280;36409;52.168;20.878;2023-11-19T11:29:45;100215.41;;;0.31;81.33
50484;BME280;36409;52.168;20.878;2023-11-19T11:32:28;100208.65;;;0.35;81.77
50484;BME280;36409;52.168;20.878;2023-11-19T11:35:14;100194.16;;;0.37;81.67
50484;BME280;36409;52.168;20.878;2023-11-19T11:37:49;100194.18;;;0.38;81.12
50484;BME280;36409;52.168;20.878;2023-11-19T11:40:20;100196.75;;;0.38;81.75
50484;BME280;36409;52.168;20.878;2023-11-19T11:42:52;100187.30;;;0.37;81.68
50484;BME280;36409;52.168;20.878;2023-11-19T11:45:36;100179.66;;;0.39;82.19
50484;BME280;36409;52.168;20.878;2023-11-19T11:48:14;100181.42;;;0.41;82.09
50484;BME280;36409;52.168;20.878;2023-11-19T11:50:57;100175.40;;;0.41;81.99
50484;BME280;36409;52.168;20.878;2023-11-19T11:53:27;100162.62;;;0.42;81.98
50484;BME280;36409;52.168;20.878;2023-11-19T11:56:05;100161.78;;;0.43;81.32
50484;BME280;36409;52.168;20.878;2023-11-19T11:58:37;100149.80;;;0.44;82.04
50484;BME280;36409;52.168;20.878;2023-11-19T12:01:07;100158.41;;;0.46;81.94
50484;BME280;36409;52.168;20.878;2023-11-19T12:03:38;100148.06;;;0.43;82.18
50484;BME280;36409;52.168;20.878;2023-11-19T12:06:08;100145.48;;;0.43;82.17
50484;BME280;36409;52.168;20.878;2023-11-19T12:08:44;100138.67;;;0.43;82.22
50484;BME280;36409;52.168;20.878;2023-11-19T12:11:18;100137.78;;;0.43;81.79
50484;BME280;36409;52.168;20.878;2023-11-19T12:13:57;100123.27;;;0.43;82.02
50484;BME280;36409;52.168;20.878;2023-11-19T12:16:30;100117.22;;;0.41;81.26
50484;BME280;36409;52.168;20.878;2023-11-19T12:19:05;100115.48;;;0.40;81.78
50484;BME280;36409;52.168;20.878;2023-11-19T12:21:35;100113.73;;;0.39;81.33
50484;BME280;36409;52.168;20.878;2023-11-19T12:24:07;100116.33;;;0.41;81.08
50484;BME280;36409;52.168;20.878;2023-11-19T12:26:39;100107.77;;;0.40;81.71
50484;BME280;36409;52.168;20.878;2023-11-19T12:29:09;100100.82;;;0.36;81.91
50484;BME280;36409;52.168;20.878;2023-11-19T12:31:38;100095.69;;;0.36;81.28
50484;BME280;36409;52.168;20.878;2023-11-19T12:34:18;100091.43;;;0.37;81.27
50484;BME280;36409;52.168;20.878;2023-11-19T12:36:47;100091.43;;;0.37;82.09
50484;BME280;36409;52.168;20.878;2023-11-19T12:39:17;100096.59;;;0.38;81.34
50484;BME280;36409;52.168;20.878;2023-11-19T12:41:52;100095.73;;;0.38;81.12
50484;BME280;36409;52.168;20.878;2023-11-19T12:44:22;100094.85;;;0.37;81.26
50484;BME280;36409;52.168;20.878;2023-11-19T12:47:02;100091.43;;;0.37;81.94
50484;BME280;36409;52.168;20.878;2023-11-19T12:49:33;100094.77;;;0.34;82.03
50484;BME280;36409;52.168;20.878;2023-11-19T12:52:13;100093.06;;;0.33;81.07
50484;BME280;36409;52.168;20.878;2023-11-19T12:54:43;100098.20;;;0.33;81.53
50484;BME280;36409;52.168;20.878;2023-11-19T12:57:12;100091.27;;;0.30;81.98
50484;BME280;36409;52.168;20.878;2023-11-19T12:59:43;100086.14;;;0.30;81.33
50484;BME280;36409;52.168;20.878;2023-11-19T13:02:12;100085.28;;;0.30;81.54
50484;BME280;36409;52.168;20.878;2023-11-19T13:04:42;100086.97;;;0.29;81.52